Time;durP1;ratioP1;P1;durP2;ratioP2;P2;SDS_P1;SDS_P2;PMS_P1;PMS_P2;Temp;Humidity;BMP_temperature;BMP_pressure;BME280_temperature;BME280_humidity;BME280_pressure;Samples;Min_cycle;Max_cycle;Signal;HPM_P1;HPM_P2
2023/08/25 00:00:09;;;;;;;3.90;2.22;;;22.30;84.40;22.60;100052.00;;;;4991250;27;109356;-65
2023/08/25 00:02:36;;;;;;;3.13;2.20;;;22.30;84.50;22.60;100053.00;;;;4987344;27;83438;-65
2023/08/25 00:05:03;;;;;;;2.08;1.88;;;22.30;84.50;22.60;100055.00;;;;4993019;27;83553;-65
2023/08/25 00:07:29;;;;;;;2.40;2.13;;;22.40;84.70;22.60;100040.00;;;;4992066;27;82892;-65
2023/08/25 00:09:55;;;;;;;4.80;1.83;;;22.40;84.80;22.60;100036.00;;;;4991259;27;105356;-65
2023/08/25 00:12:22;;;;;;;3.75;2.72;;;22.40;85.00;22.60;100035.00;;;;4991957;27;99103;-65
2023/08/25 00:14:48;;;;;;;2.55;2.03;;;22.40;85.40;22.60;100027.00;;;;4993443;27;85151;-65
2023/08/25 00:17:14;;;;;;;1.70;1.60;;;22.40;85.60;22.60;100023.00;;;;4989258;27;86936;-65
2023/08/25 00:19:40;;;;;;;2.70;2.30;;;22.40;85.80;22.60;100020.00;;;;4991671;27;82937;-65
2023/08/25 00:22:06;;;;;;;1.48;1.35;;;22.40;86.10;22.60;100016.00;;;;4977182;27;83469;-64
2023/08/25 00:24:34;;;;;;;2.42;2.22;;;22.40;86.50;22.60;100011.00;;;;4994065;27;113930;-65
2023/08/25 00:27:00;;;;;;;2.92;2.60;;;22.40;86.50;22.60;100007.00;;;;4995906;27;83059;-64
2023/08/25 00:29:26;;;;;;;2.88;2.25;;;22.40;86.50;22.60;100014.00;;;;4995926;27;109756;-63
2023/08/25 00:31:52;;;;;;;2.55;2.00;;;22.40;86.60;22.60;100023.00;;;;4992191;27;107762;-64
2023/08/25 00:34:20;;;;;;;3.33;2.17;;;22.30;86.90;22.60;100024.00;;;;4989395;27;111281;-64
2023/08/25 00:36:46;;;;;;;1.70;1.60;;;22.40;87.30;22.60;100012.00;;;;4991923;27;106046;-64
2023/08/25 00:39:12;;;;;;;4.65;2.33;;;22.40;87.70;22.60;100000.00;;;;4990625;27;109058;-64
2023/08/25 00:41:38;;;;;;;3.78;2.28;;;22.40;88.70;22.50;100011.00;;;;4996015;27;82817;-64
2023/08/25 00:44:04;;;;;;;2.38;2.17;;;22.30;89.30;22.50;100000.00;;;;4992578;27;111676;-65
2023/08/25 00:46:30;;;;;;;2.30;2.10;;;22.30;90.00;22.30;100014.00;;;;4992611;27;111550;-65
2023/08/25 00:48:57;;;;;;;2.88;2.50;;;22.20;90.30;22.20;100011.00;;;;4988362;27;107940;-65
2023/08/25 00:51:25;;;;;;;3.20;2.55;;;22.10;91.10;22.10;100001.00;;;;4989510;27;108236;-64
2023/08/25 00:53:51;;;;;;;2.95;2.58;;;22.00;91.50;22.00;100000.00;;;;4974798;28;82973;-64
2023/08/25 00:56:18;;;;;;;3.13;2.45;;;21.90;91.90;21.90;100004.00;;;;4993881;27;86749;-64
2023/08/25 00:58:44;;;;;;;2.05;1.90;;;21.80;92.50;21.90;100001.00;;;;4989028;27;110155;-64
2023/08/25 01:01:11;;;;;;;4.70;2.88;;;21.70;92.80;21.80;99999.00;;;;4977575;27;94605;-63
2023/08/25 01:03:39;;;;;;;3.53;2.60;;;21.70;93.10;21.80;99989.00;;;;4993175;27;84149;-64
2023/08/25 01:06:05;;;;;;;2.67;2.42;;;21.60;93.40;21.80;99989.00;;;;4992627;27;84833;-64
2023/08/25 01:08:32;;;;;;;4.15;2.33;;;21.60;93.60;21.70;99991.00;;;;4990118;27;82856;-64
2023/08/25 01:11:20;;;;;;;3.50;2.35;;;21.60;93.70;21.70;99979.00;;;;4990246;27;82898;-64
2023/08/25 01:13:57;;;;;;;3.42;2.28;;;21.60;94.00;21.70;99978.00;;;;4990223;27;84626;-65
2023/08/25 01:16:31;;;;;;;3.97;2.65;;;21.60;94.70;21.70;99978.00;;;;4976038;27;103377;-64
2023/08/25 01:18:57;;;;;;;6.75;2.25;;;21.50;95.00;21.70;99968.00;;;;4989912;27;94491;-64
2023/08/25 01:21:24;;;;;;;3.47;2.63;;;21.50;95.00;21.60;99966.00;;;;4990700;27;108161;-64
2023/08/25 01:24:13;;;;;;;2.30;2.10;;;21.50;95.30;21.60;99966.00;;;;4973363;28;112269;-64
2023/08/25 01:26:38;;;;;;;3.65;2.28;;;21.40;95.30;21.50;99973.00;;;;4973339;27;82792;-64
2023/08/25 01:29:04;;;;;;;4.15;2.97;;;21.40;95.40;21.50;99968.00;;;;4972946;28;111223;-64
2023/08/25 01:31:30;;;;;;;2.22;2.10;;;21.40;95.60;21.50;99965.00;;;;4989652;27;82907;-64
2023/08/25 01:33:56;;;;;;;3.55;2.85;;;21.30;95.60;21.50;99968.00;;;;4991310;27;111935;-64
2023/08/25 01:36:46;;;;;;;2.47;2.03;;;21.30;95.70;21.40;99971.00;;;;4991131;27;112469;-64
2023/08/25 01:39:16;;;;;;;2.95;2.58;;;21.30;96.10;21.40;99982.00;;;;4991808;27;82763;-63
2023/08/25 01:41:44;;;;;;;3.08;2.33;;;21.30;96.40;21.40;99968.00;;;;4988722;27;82897;-65
2023/08/25 01:44:14;;;;;;;3.97;2.58;;;21.30;96.60;21.40;99972.00;;;;4990607;27;83338;-64
2023/08/25 01:46:44;;;;;;;2.30;2.03;;;21.20;96.80;21.30;99974.00;;;;4992017;27;99241;-63
2023/08/25 01:49:14;;;;;;;3.55;2.90;;;21.20;97.00;21.30;99966.00;;;;4992575;27;100651;-64
2023/08/25 01:51:40;;;;;;;3.13;2.22;;;21.20;97.20;21.30;99961.00;;;;4996270;27;82883;-64
2023/08/25 01:54:06;;;;;;;2.47;2.28;;;21.10;97.30;21.20;99956.00;;;;4977670;27;92057;-65
2023/08/25 01:56:31;;;;;;;3.65;2.63;;;21.10;97.60;21.20;99961.00;;;;4992753;27;113320;-64
2023/08/25 01:58:57;;;;;;;5.72;3.45;;;21.10;97.80;21.20;99968.00;;;;4992721;27;110320;-64
2023/08/25 02:01:23;;;;;;;4.18;2.20;;;21.00;98.00;21.10;99963.00;;;;4968779;28;109918;-65
2023/08/25 02:03:48;;;;;;;4.32;2.50;;;21.00;98.10;21.10;99958.00;;;;4991234;27;104582;-65
2023/08/25 02:06:14;;;;;;;5.88;3.03;;;21.00;98.20;21.10;99956.00;;;;4991266;27;112069;-64
2023/08/25 02:08:40;;;;;;;2.67;1.90;;;21.00;98.30;21.10;99949.00;;;;4991820;27;89025;-64
2023/08/25 02:11:05;;;;;;;2.80;2.50;;;21.00;98.40;21.10;99955.00;;;;4988064;27;108252;-64
2023/08/25 02:13:31;;;;;;;4.93;2.80;;;21.00;98.50;21.20;99956.00;;;;4988892;27;113507;-64
2023/08/25 02:15:58;;;;;;;5.25;2.78;;;21.00;98.50;21.20;99956.00;;;;4988841;27;93300;-64
2023/08/25 02:18:23;;;;;;;3.13;2.83;;;21.00;98.70;21.20;99961.00;;;;4989348;27;109817;-64
2023/08/25 02:20:49;;;;;;;3.22;2.28;;;21.00;98.60;21.20;99955.00;;;;4987346;27;108813;-65
2023/08/25 02:23:15;;;;;;;3.20;2.50;;;21.10;98.60;21.20;99958.00;;;;4991372;27;82973;-64
2023/08/25 02:25:41;;;;;;;2.95;2.28;;;21.10;98.60;21.20;99952.00;;;;4989212;27;112911;-64
2023/08/25 02:28:07;;;;;;;3.63;3.08;;;21.10;98.60;21.20;99958.00;;;;4987995;27;82786;-64
2023/08/25 02:30:33;;;;;;;3.13;2.13;;;21.00;98.50;21.20;99956.00;;;;4991359;27;82655;-64
2023/08/25 02:32:59;;;;;;;3.08;2.88;;;21.10;98.40;21.20;99963.00;;;;4988804;27;111884;-64
2023/08/25 02:35:25;;;;;;;3.17;2.88;;;21.00;98.30;21.30;99958.00;;;;4989836;27;112531;-65
2023/08/25 02:38:07;;;;;;;3.00;2.25;;;21.10;98.30;21.30;99956.00;;;;4988915;27;109520;-64
2023/08/25 02:40:34;;;;;;;2.88;2.58;;;21.10;98.20;21.30;99947.00;;;;4988702;27;82959;-64
2023/08/25 02:43:03;;;;;;;4.97;2.55;;;21.20;98.10;21.40;99955.00;;;;4990977;27;84759;-64
2023/08/25 02:45:29;;;;;;;2.83;2.13;;;21.20;97.90;21.40;99954.00;;;;4989981;27;84332;-65
2023/08/25 02:47:55;;;;;;;2.15;1.98;;;21.20;97.70;21.50;99945.00;;;;4989790;27;83018;-64
2023/08/25 02:50:21;;;;;;;2.60;2.17;;;21.30;97.50;21.60;99946.00;;;;4988927;27;87800;-64
2023/08/25 02:52:48;;;;;;;2.63;1.95;;;21.30;97.30;21.60;99946.00;;;;4991104;27;111975;-64
2023/08/25 02:55:19;;;;;;;1.80;1.40;;;21.40;97.10;21.60;99935.00;;;;4993165;27;83210;-63
2023/08/25 02:57:46;;;;;;;4.25;2.03;;;21.40;96.90;21.70;99933.00;;;;4989306;27;82617;-64
2023/08/25 03:00:16;;;;;;;3.35;2.20;;;21.50;96.80;21.70;99936.00;;;;4988253;27;82175;-64
2023/08/25 03:02:42;;;;;;;2.33;2.13;;;21.50;96.60;21.70;99932.00;;;;4988340;27;83635;-64
2023/08/25 03:05:11;;;;;;;2.92;2.35;;;21.50;96.80;21.70;99931.00;;;;4991243;27;99791;-65
2023/08/25 03:07:37;;;;;;;4.20;2.10;;;21.50;96.40;21.70;99942.00;;;;4989186;27;83855;-65
2023/08/25 03:10:03;;;;;;;2.55;1.85;;;21.60;96.30;21.80;99933.00;;;;4983551;27;110012;-65
2023/08/25 03:12:29;;;;;;;3.08;2.15;;;21.60;96.20;21.80;99930.00;;;;4986594;27;103524;-65
2023/08/25 03:14:55;;;;;;;2.72;1.98;;;21.60;96.00;21.80;99926.00;;;;4989372;27;112169;-66
2023/08/25 03:17:21;;;;;;;2.72;1.63;;;21.60;95.90;21.80;99925.00;;;;4987590;27;83183;-65
2023/08/25 03:19:47;;;;;;;2.38;2.17;;;21.60;95.80;21.80;99932.00;;;;4988427;27;82778;-65
2023/08/25 03:22:13;;;;;;;2.08;1.88;;;21.60;95.70;21.80;99931.00;;;;4986304;27;106211;-65
2023/08/25 03:24:39;;;;;;;2.67;1.63;;;21.60;95.90;21.80;99926.00;;;;4986632;27;112475;-65
2023/08/25 03:27:04;;;;;;;1.73;1.58;;;21.60;95.50;21.80;99920.00;;;;4984132;27;82917;-65
2023/08/25 03:29:33;;;;;;;3.05;1.98;;;21.60;95.50;21.80;99918.00;;;;4989154;27;97039;-65
2023/08/25 03:31:59;;;;;;;2.67;2.00;;;21.60;95.50;21.70;99913.00;;;;4990703;27;83609;-63
2023/08/25 03:34:26;;;;;;;1.98;1.73;;;21.60;95.40;21.70;99917.00;;;;4988908;27;82932;-64
2023/08/25 03:36:52;;;;;;;4.53;1.80;;;21.60;95.50;21.70;99917.00;;;;4991682;27;86021;-65
2023/08/25 03:39:18;;;;;;;3.22;1.85;;;21.50;95.40;21.70;99911.00;;;;4991659;27;82909;-65
2023/08/25 03:41:44;;;;;;;2.90;1.55;;;21.50;95.50;21.70;99913.00;;;;4990646;27;83917;-64
2023/08/25 03:44:10;;;;;;;4.25;2.00;;;21.50;95.50;21.70;99912.00;;;;4990201;27;103705;-65
2023/08/25 03:46:36;;;;;;;2.22;1.80;;;21.50;95.40;21.70;99916.00;;;;4994838;27;82952;-66
2023/08/25 03:49:02;;;;;;;1.85;1.75;;;21.50;95.40;21.70;99920.00;;;;4994510;27;82276;-65
2023/08/25 03:51:28;;;;;;;2.13;1.70;;;21.50;95.40;21.70;99912.00;;;;4989876;27;112627;-65
2023/08/25 03:53:54;;;;;;;3.03;1.88;;;21.50;95.40;21.60;99914.00;;;;4991532;27;83305;-65
2023/08/25 03:56:19;;;;;;;2.17;1.83;;;21.50;95.40;21.60;99914.00;;;;4992379;28;83930;-66
2023/08/25 03:58:45;;;;;;;2.65;1.90;;;21.40;95.40;21.50;99920.00;;;;4993604;27;107624;-65
2023/08/25 04:01:11;;;;;;;1.63;1.52;;;21.40;95.50;21.50;99913.00;;;;4989308;27;83407;-65
2023/08/25 04:03:39;;;;;;;3.10;2.33;;;21.40;95.50;21.40;99923.00;;;;4994271;27;112690;-65
2023/08/25 04:06:06;;;;;;;1.98;1.75;;;21.30;95.60;21.40;99920.00;;;;4989918;27;110937;-65
2023/08/25 04:08:32;;;;;;;3.03;1.98;;;21.30;95.60;21.40;99921.00;;;;4992950;27;82951;-65
2023/08/25 04:10:57;;;;;;;4.32;1.75;;;21.20;95.60;21.30;99925.00;;;;4997286;27;102689;-66
2023/08/25 04:13:23;;;;;;;4.35;1.95;;;21.20;95.70;21.30;99932.00;;;;4993560;27;102940;-66
2023/08/25 04:15:56;;;;;;;2.05;1.85;;;21.10;95.70;21.20;99934.00;;;;4991959;27;82828;-65
2023/08/25 04:18:23;;;;;;;3.10;2.35;;;21.20;95.90;21.20;99937.00;;;;4990589;27;101278;-65
2023/08/25 04:20:49;;;;;;;3.78;2.30;;;21.00;95.90;21.10;99937.00;;;;4989522;27;83745;-64
2023/08/25 04:23:15;;;;;;;5.55;2.17;;;21.00;95.90;21.10;99935.00;;;;4988562;27;113561;-65
2023/08/25 04:25:41;;;;;;;2.15;1.95;;;20.90;96.00;21.00;99927.00;;;;4987233;27;111941;-65
2023/08/25 04:28:07;;;;;;;3.47;2.42;;;20.90;96.20;21.00;99928.00;;;;4992032;27;101783;-64
2023/08/25 04:30:33;;;;;;;3.28;2.25;;;20.90;96.30;21.00;99937.00;;;;4990784;27;93729;-64
2023/08/25 04:32:58;;;;;;;2.88;2.15;;;20.80;96.40;21.00;99922.00;;;;4991388;27;112507;-66
2023/08/25 04:35:24;;;;;;;3.10;2.15;;;20.80;96.50;21.00;99932.00;;;;4987760;27;109060;-66
2023/08/25 04:37:50;;;;;;;3.88;2.10;;;20.80;96.70;21.00;99932.00;;;;4990431;27;108440;-66
2023/08/25 04:40:17;;;;;;;3.83;2.15;;;20.80;97.00;21.00;99923.00;;;;4987424;27;84228;-66
2023/08/25 04:42:43;;;;;;;2.33;2.00;;;20.80;97.00;21.00;99927.00;;;;4989142;27;82663;-66
2023/08/25 04:45:13;;;;;;;14.15;2.28;;;20.80;97.10;21.00;99926.00;;;;4989423;27;83568;-66
2023/08/25 04:47:39;;;;;;;6.82;2.67;;;20.80;97.10;21.00;99919.00;;;;4992311;27;93043;-65
2023/08/25 04:50:07;;;;;;;3.00;2.70;;;20.90;97.20;21.10;99932.00;;;;4987454;27;111942;-65
2023/08/25 04:52:36;;;;;;;3.85;2.53;;;20.90;97.30;21.10;99925.00;;;;4988486;27;83916;-65
2023/08/25 04:55:06;;;;;;;4.18;1.90;;;20.90;97.40;21.10;99927.00;;;;4988191;28;82953;-65
2023/08/25 04:57:34;;;;;;;5.43;2.80;;;21.00;97.50;21.20;99924.00;;;;4988689;27;82764;-65
2023/08/25 05:00:01;;;;;;;2.75;1.80;;;21.00;97.50;21.20;99923.00;;;;4989598;27;84094;-65
2023/08/25 05:02:27;;;;;;;3.00;2.25;;;21.00;97.60;21.30;99917.00;;;;4991046;27;84528;-65
2023/08/25 05:04:52;;;;;;;3.33;1.95;;;21.10;97.60;21.40;99920.00;;;;4990232;27;109240;-65
2023/08/25 05:07:18;;;;;;;1.73;1.52;;;21.20;97.70;21.50;99916.00;;;;4988331;27;105744;-64
2023/08/25 05:09:44;;;;;;;3.53;1.88;;;21.30;97.70;21.70;99909.00;;;;4987261;27;112873;-65
2023/08/25 05:12:09;;;;;;;1.75;1.65;;;21.40;97.70;21.80;99911.00;;;;4985010;27;108380;-66
2023/08/25 05:14:35;;;;;;;4.60;1.90;;;21.50;97.70;21.90;99912.00;;;;4988549;27;108678;-64
2023/08/25 05:17:01;;;;;;;4.18;2.42;;;21.70;97.60;22.10;99908.00;;;;4983915;27;83316;-64
2023/08/25 05:19:26;;;;;;;2.40;1.92;;;21.80;97.60;22.20;99900.00;;;;4984987;27;112621;-65
2023/08/25 05:21:52;;;;;;;3.60;2.03;;;22.00;97.50;22.40;99901.00;;;;4989399;27;83279;-65
2023/08/25 05:24:19;;;;;;;4.40;2.67;;;22.10;97.40;22.60;99905.00;;;;4984207;27;109542;-66
2023/08/25 05:26:51;;;;;;;6.28;2.30;;;22.30;97.30;22.80;99908.00;;;;4988117;27;82190;-66
2023/08/25 05:29:21;;;;;;;4.35;2.33;;;22.50;97.10;23.00;99906.00;;;;4983252;27;84030;-65
2023/08/25 05:31:47;;;;;;;4.47;2.45;;;22.70;96.90;23.20;99902.00;;;;4986395;27;82807;-64
2023/08/25 05:34:14;;;;;;;4.25;1.88;;;22.80;96.70;23.30;99905.00;;;;4982530;27;83704;-65
2023/08/25 05:36:39;;;;;;;3.38;1.95;;;23.10;96.50;23.50;99906.00;;;;4984917;27;101608;-64
2023/08/25 05:39:05;;;;;;;2.08;1.38;;;23.20;96.30;23.70;99902.00;;;;4982935;27;112357;-64
2023/08/25 05:41:31;;;;;;;2.65;1.70;;;23.40;96.10;23.90;99901.00;;;;4990873;27;83297;-65
2023/08/25 05:43:56;;;;;;;3.00;2.15;;;23.60;95.90;24.10;99904.00;;;;4991025;27;110794;-65
2023/08/25 05:46:22;;;;;;;1.42;1.20;;;23.80;95.60;24.30;99898.00;;;;4987399;27;88137;-64
2023/08/25 05:48:48;;;;;;;2.42;1.42;;;24.00;95.40;24.50;99900.00;;;;4985427;28;110594;-66
2023/08/25 05:51:15;;;;;;;2.60;2.33;;;24.20;95.10;24.70;99907.00;;;;4990178;27;111866;-65
2023/08/25 05:53:40;;;;;;;2.33;1.95;;;24.40;94.90;24.90;99907.00;;;;4986869;28;100688;-66
2023/08/25 05:56:06;;;;;;;2.28;1.92;;;24.60;94.60;25.00;99902.00;;;;4988067;27;107799;-67
2023/08/25 05:58:31;;;;;;;2.00;1.60;;;24.70;94.20;25.20;99908.00;;;;4989935;27;113156;-65
2023/08/25 06:00:58;;;;;;;4.63;2.45;;;24.90;93.90;25.30;99913.00;;;;4992407;27;84333;-66
2023/08/25 06:03:25;;;;;;;2.20;1.63;;;25.00;93.60;25.50;99907.00;;;;4991640;27;82806;-65
2023/08/25 06:05:53;;;;;;;3.70;2.47;;;25.20;93.30;25.60;99912.00;;;;4987284;27;82642;-66
2023/08/25 06:08:20;;;;;;;2.08;1.38;;;25.30;93.00;25.70;99913.00;;;;4985280;28;83682;-66
2023/08/25 06:10:47;;;;;;;5.07;2.47;;;25.40;92.70;25.90;99912.00;;;;4990179;27;82723;-66
2023/08/25 06:13:15;;;;;;;2.22;1.55;;;25.60;92.50;26.00;99909.00;;;;4988792;27;94741;-66
2023/08/25 06:15:41;;;;;;;2.95;2.03;;;25.70;92.10;26.10;99916.00;;;;4986197;27;82115;-66
2023/08/25 06:18:07;;;;;;;4.95;2.45;;;25.80;91.90;26.10;99911.00;;;;4987712;27;112297;-66
2023/08/25 06:20:32;;;;;;;2.05;1.60;;;25.80;91.50;26.20;99908.00;;;;4988873;27;112270;-65
2023/08/25 06:22:58;;;;;;;2.13;1.58;;;26.00;91.90;26.30;99916.00;;;;4970866;28;109767;-66
2023/08/25 06:25:24;;;;;;;2.95;1.88;;;26.10;91.20;26.40;99911.00;;;;4989138;27;99302;-66
2023/08/25 06:27:50;;;;;;;10.15;3.15;;;26.10;90.80;26.40;99902.00;;;;4969079;28;112487;-66
2023/08/25 06:30:17;;;;;;;4.55;2.00;;;26.20;90.70;26.50;99912.00;;;;4987409;27;111732;-65
2023/08/25 06:32:43;;;;;;;1.50;1.40;;;26.30;90.50;26.60;99914.00;;;;4989369;27;95591;-65
2023/08/25 06:35:14;;;;;;;2.72;2.05;;;26.40;90.40;26.70;99920.00;;;;4984525;27;90815;-65
2023/08/25 06:37:39;;;;;;;2.28;1.70;;;26.40;90.30;26.80;99921.00;;;;4990471;27;83031;-66
2023/08/25 06:40:08;;;;;;;3.20;2.05;;;26.50;90.10;26.90;99916.00;;;;4986625;27;106941;-64
2023/08/25 06:42:34;;;;;;;2.30;1.52;;;26.60;90.00;27.10;99923.00;;;;4987129;27;100473;-66
2023/08/25 06:45:00;;;;;;;1.65;1.55;;;26.70;89.90;27.20;99920.00;;;;4969825;27;109083;-65
2023/08/25 06:47:27;;;;;;;1.98;1.63;;;26.90;89.00;27.20;99922.00;;;;4971539;28;84890;-64
2023/08/25 06:49:58;;;;;;;2.42;1.30;;;27.00;88.70;27.30;99916.00;;;;4988016;27;84268;-65
2023/08/25 06:52:24;;;;;;;3.75;2.03;;;27.10;88.40;27.40;99934.00;;;;4986186;27;110776;-66
2023/08/25 06:54:50;;;;;;;2.38;1.85;;;27.20;87.90;27.60;99929.00;;;;4987693;27;83222;-66
2023/08/25 06:57:16;;;;;;;11.52;1.77;;;27.30;87.60;27.70;99928.00;;;;4988375;27;87973;-66
2023/08/25 06:59:41;;;;;;;2.60;1.77;;;27.40;87.00;27.80;99927.00;;;;4984704;27;82577;-64
2023/08/25 07:02:08;;;;;;;2.50;2.08;;;27.60;86.40;27.90;99934.00;;;;4988027;27;110600;-64
2023/08/25 07:04:34;;;;;;;3.38;1.65;;;27.70;85.90;28.00;99929.00;;;;4990243;27;81997;-65
2023/08/25 07:07:00;;;;;;;2.58;2.05;;;27.70;85.10;28.00;99934.00;;;;4987150;27;102364;-65
2023/08/25 07:09:28;;;;;;;2.30;1.58;;;27.80;85.00;28.10;99932.00;;;;4986020;27;95313;-67
2023/08/25 07:11:54;;;;;;;2.35;1.65;;;27.90;85.10;28.30;99936.00;;;;4984866;27;110129;-66
2023/08/25 07:14:20;;;;;;;2.63;1.40;;;28.00;84.70;28.40;99935.00;;;;4985939;27;98981;-66
2023/08/25 07:16:45;;;;;;;1.98;1.73;;;28.10;83.80;28.50;99941.00;;;;4992845;27;82938;-65
2023/08/25 07:19:13;;;;;;;1.52;1.15;;;28.20;83.70;28.70;99949.00;;;;4990674;27;111474;-65
2023/08/25 07:21:38;;;;;;;2.13;1.88;;;28.40;84.00;28.80;99942.00;;;;4989298;27;86648;-66
2023/08/25 07:24:04;;;;;;;2.85;1.67;;;28.60;82.90;29.00;99954.00;;;;4991982;27;107338;-66
2023/08/25 07:26:30;;;;;;;4.72;2.03;;;28.70;82.60;29.20;99953.00;;;;4988161;27;83561;-65
2023/08/25 07:28:56;;;;;;;1.60;1.50;;;28.90;82.00;29.30;99947.00;;;;4989333;27;83829;-65
2023/08/25 07:31:24;;;;;;;2.35;1.70;;;29.00;80.80;29.40;99937.00;;;;4990460;27;110635;-65
2023/08/25 07:33:50;;;;;;;2.65;1.75;;;29.10;80.00;29.40;99942.00;;;;4989358;27;107928;-66
2023/08/25 07:36:19;;;;;;;2.65;1.58;;;29.20;79.30;29.40;99951.00;;;;4989025;27;113314;-65
2023/08/25 07:38:45;;;;;;;3.13;1.90;;;29.30;78.70;29.40;99949.00;;;;4987831;27;85326;-64
2023/08/25 07:41:13;;;;;;;1.85;1.65;;;29.30;79.10;29.50;99953.00;;;;4989155;27;82662;-65
2023/08/25 07:43:38;;;;;;;1.50;1.40;;;29.30;78.50;29.60;99956.00;;;;4987691;27;82923;-64
2023/08/25 07:46:04;;;;;;;3.35;1.77;;;29.40;78.10;29.70;99958.00;;;;4991540;27;113225;-64
2023/08/25 07:48:30;;;;;;;3.17;1.90;;;29.50;77.70;29.90;99968.00;;;;4988200;28;111998;-64
2023/08/25 07:50:56;;;;;;;8.30;1.55;;;29.70;77.20;30.00;99965.00;;;;4990017;27;82593;-67
2023/08/25 07:53:21;;;;;;;1.70;1.30;;;29.80;76.70;30.10;99950.00;;;;4989948;27;108379;-65
2023/08/25 07:55:47;;;;;;;2.95;1.85;;;29.90;76.30;30.30;99951.00;;;;4988050;27;106820;-65
2023/08/25 07:58:13;;;;;;;2.05;1.50;;;30.00;75.20;30.40;99970.00;;;;4989531;27;87556;-65
2023/08/25 08:00:40;;;;;;;2.30;2.05;;;30.10;74.30;30.50;99977.00;;;;4993117;27;111421;-71
2023/08/25 08:03:08;;;;;;;3.83;1.55;;;30.20;73.80;30.50;99985.00;;;;4988702;27;83170;-65
2023/08/25 08:05:34;;;;;;;1.95;1.40;;;30.30;71.80;30.30;99992.00;;;;4988061;28;82997;-65
2023/08/25 08:08:01;;;;;;;1.90;1.63;;;30.20;72.00;30.30;99986.00;;;;4988089;27;83446;-65
2023/08/25 08:10:27;;;;;;;3.58;2.13;;;30.20;72.50;30.40;99994.00;;;;4989075;28;83952;-64
2023/08/25 08:12:53;;;;;;;1.83;1.73;;;30.20;71.70;30.30;99988.00;;;;4990486;27;82663;-64
2023/08/25 08:15:18;;;;;;;2.03;1.50;;;30.20;71.10;30.30;99994.00;;;;4989300;28;111222;-64
2023/08/25 08:17:44;;;;;;;4.85;2.05;;;30.20;70.60;30.30;99987.00;;;;4989260;27;112603;-65
2023/08/25 08:20:13;;;;;;;6.82;2.05;;;30.10;71.00;30.30;99984.00;;;;4990425;27;110080;-64
2023/08/25 08:22:40;;;;;;;1.60;1.15;;;30.10;71.50;30.30;99989.00;;;;4992541;27;82979;-65
2023/08/25 08:25:11;;;;;;;5.88;1.60;;;30.10;71.90;30.50;99990.00;;;;4990019;27;85528;-65
2023/08/25 08:27:39;;;;;;;3.95;1.40;;;30.20;71.70;30.70;99987.00;;;;4989575;27;88030;-66
2023/08/25 08:30:05;;;;;;;2.05;1.65;;;30.40;71.20;30.80;99995.00;;;;4991098;27;83089;-66
2023/08/25 08:32:35;;;;;;;2.10;1.70;;;30.50;70.80;30.90;99986.00;;;;4991038;27;99783;-66
2023/08/25 08:35:07;;;;;;;1.65;1.55;;;30.60;69.90;31.10;99987.00;;;;4991397;27;82667;-66
2023/08/25 08:37:33;;;;;;;1.50;1.15;;;30.80;69.80;31.20;99996.00;;;;4974400;27;83797;-67
2023/08/25 08:39:59;;;;;;;3.17;2.00;;;31.00;68.90;31.30;100006.00;;;;4988494;28;83036;-67
2023/08/25 08:42:25;;;;;;;1.80;1.17;;;31.00;68.60;31.30;99994.00;;;;4988165;27;108511;-67
2023/08/25 08:44:51;;;;;;;3.20;1.85;;;31.00;68.50;31.40;99996.00;;;;4983822;27;113173;-66
2023/08/25 08:47:22;;;;;;;1.20;1.10;;;31.10;68.50;31.40;100012.00;;;;4991650;27;82778;-66
2023/08/25 08:49:49;;;;;;;1.83;1.48;;;31.10;67.30;31.20;100003.00;;;;4988389;27;110057;-67
2023/08/25 08:52:16;;;;;;;2.53;1.27;;;31.00;67.00;30.90;99999.00;;;;4977152;28;109440;-67
2023/08/25 08:54:43;;;;;;;3.53;1.55;;;30.80;67.50;30.70;100001.00;;;;4989632;28;83799;-66
2023/08/25 08:57:18;;;;;;;4.88;1.52;;;30.60;68.10;30.50;100003.00;;;;4982039;28;83339;-68
2023/08/25 08:59:44;;;;;;;3.42;1.65;;;30.30;68.80;30.50;99999.00;;;;4987839;27;110492;-66
2023/08/25 09:02:13;;;;;;;12.68;5.13;;;30.20;68.90;30.40;99999.00;;;;4990721;27;82776;-66
2023/08/25 09:04:40;;;;;;;5.65;1.35;;;30.10;69.00;30.40;99996.00;;;;4975568;28;83837;-67
2023/08/25 09:07:07;;;;;;;3.67;1.60;;;30.10;69.50;30.40;100008.00;;;;4980739;28;96049;-68
2023/08/25 09:09:33;;;;;;;2.13;1.60;;;30.20;69.80;30.50;100010.00;;;;4987106;27;82825;-68
2023/08/25 09:11:58;;;;;;;1.63;1.50;;;30.20;69.60;30.70;100002.00;;;;4989757;27;108572;-68
2023/08/25 09:14:27;;;;;;;2.72;1.95;;;30.30;69.80;30.80;100007.00;;;;4987261;27;113711;-69
2023/08/25 09:16:59;;;;;;;2.10;1.42;;;30.40;68.70;31.00;100015.00;;;;4973522;28;83060;-69
2023/08/25 09:19:30;;;;;;;2.22;1.35;;;30.60;68.30;31.10;100007.00;;;;4973307;27;82829;-66
2023/08/25 09:21:56;;;;;;;6.30;2.63;;;30.60;67.90;31.30;100001.00;;;;4989308;27;82862;-68
2023/08/25 09:24:22;;;;;;;6.13;1.90;;;30.90;67.60;31.50;100016.00;;;;4987702;27;82593;-67
2023/08/25 09:26:49;;;;;;;2.47;1.98;;;31.00;67.20;31.70;100009.00;;;;4989893;27;112850;-69
2023/08/25 09:29:15;;;;;;;1.50;1.40;;;31.20;66.60;31.90;100003.00;;;;4988361;27;82614;-68
2023/08/25 09:31:42;;;;;;;2.30;1.65;;;31.40;65.70;32.10;99998.00;;;;4988714;27;82468;-69
2023/08/25 09:34:13;;;;;;;1.90;1.70;;;31.60;64.90;32.40;100009.00;;;;4958002;28;85346;-68
2023/08/25 09:36:53;;;;;;;1.65;1.55;;;31.80;64.20;32.60;100007.00;;;;4986200;27;82494;-67
2023/08/25 09:39:20;;;;;;;2.17;1.42;;;32.10;63.50;32.80;100009.00;;;;4987796;27;83480;-67
2023/08/25 09:41:46;;;;;;;6.60;2.17;;;32.30;62.90;33.00;100018.00;;;;4988860;27;82718;-68
2023/08/25 09:44:13;;;;;;;2.42;1.42;;;32.40;61.70;33.10;100016.00;;;;4988897;27;83985;-69
2023/08/25 09:46:39;;;;;;;1.48;1.25;;;32.60;60.20;33.20;100018.00;;;;4990702;27;82890;-66
2023/08/25 09:49:07;;;;;;;1.13;1.02;;;32.70;59.80;33.30;100022.00;;;;4988747;28;82812;-70
2023/08/25 09:51:45;;;;;;;1.58;1.08;;;32.80;59.40;33.40;100024.00;;;;4972369;28;82757;-67
2023/08/25 09:54:13;;;;;;;10.23;2.28;;;32.90;59.30;33.40;100027.00;;;;4990648;27;83965;-67
2023/08/25 09:56:41;;;;;;;2.00;1.55;;;32.90;58.80;33.50;100041.00;;;;4988749;27;83099;-68
2023/08/25 09:59:09;;;;;;;2.15;1.40;;;33.00;58.20;33.60;100046.00;;;;4991484;27;82978;-67
2023/08/25 10:01:37;;;;;;;1.60;1.30;;;33.10;58.30;33.60;100049.00;;;;4992778;27;93614;-67
2023/08/25 10:04:04;;;;;;;1.23;1.13;;;33.10;57.80;33.60;100043.00;;;;4987331;27;84437;-67
2023/08/25 10:06:32;;;;;;;2.08;1.30;;;33.00;57.60;33.60;100046.00;;;;4988125;27;83336;-67
2023/08/25 10:09:02;;;;;;;1.85;1.38;;;33.00;57.70;33.80;100057.00;;;;4990400;27;86703;-68
2023/08/25 10:11:34;;;;;;;1.48;1.38;;;33.20;57.70;34.00;100045.00;;;;4988867;27;82588;-67
2023/08/25 10:14:06;;;;;;;2.13;1.23;;;33.40;57.60;34.10;100033.00;;;;4970777;27;83871;-69
2023/08/25 10:16:38;;;;;;;2.90;1.73;;;33.60;57.00;34.20;100026.00;;;;4986958;27;83184;-68
2023/08/25 10:19:05;;;;;;;2.65;1.98;;;33.60;56.60;34.20;100025.00;;;;4989869;27;102484;-68
2023/08/25 10:21:33;;;;;;;2.03;1.10;;;33.60;56.50;34.40;100032.00;;;;4974961;27;96138;-68
2023/08/25 10:24:01;;;;;;;1.38;1.15;;;33.80;56.40;34.40;100024.00;;;;4977666;27;83192;-68
2023/08/25 10:26:27;;;;;;;2.08;1.60;;;33.80;55.70;34.30;100038.00;;;;4971985;28;82760;-68
2023/08/25 10:28:53;;;;;;;2.25;1.65;;;33.80;55.60;34.20;100038.00;;;;4985952;27;110493;-67
2023/08/25 10:31:19;;;;;;;2.10;1.40;;;33.70;55.10;34.30;100024.00;;;;4991069;27;109104;-67
2023/08/25 10:33:50;;;;;;;1.17;1.08;;;33.70;55.60;34.50;100028.00;;;;4966830;28;113000;-66
2023/08/25 10:36:18;;;;;;;4.43;1.35;;;33.80;55.60;34.70;100028.00;;;;4957835;28;82797;-65
2023/08/25 10:39:07;;;;;;;1.67;1.25;;;34.10;55.20;35.10;100021.00;;;;4987997;27;82574;-67
2023/08/25 10:41:42;;;;;;;2.97;1.40;;;34.40;54.50;35.20;100029.00;;;;4987201;27;83199;-67
2023/08/25 10:44:19;;;;;;;2.47;1.63;;;34.60;54.50;35.20;100038.00;;;;4987420;27;83606;-69
2023/08/25 10:46:45;;;;;;;2.40;1.25;;;34.60;54.00;35.10;100041.00;;;;4970419;28;82327;-68
2023/08/25 10:49:12;;;;;;;2.40;1.17;;;34.60;53.30;34.80;100043.00;;;;4985394;27;110318;-67